Time;durP1;ratioP1;P1;durP2;ratioP2;P2;SDS_P1;SDS_P2;PMS_P1;PMS_P2;Temp;Humidity;BMP_temperature;BMP_pressure;BME280_temperature;BME280_humidity;BME280_pressure;Samples;Min_cycle;Max_cycle;Signal;HPM_P1;HPM_P2
2023/09/16 00:01:33;;;;;;;8.38;3.45;;;14.30;99.90;;;13.21;91.70;101733.44;4926685;29;20092;-75
2023/09/16 00:03:58;;;;;;;11.27;3.33;;;14.20;99.90;;;13.14;91.88;101730.19;4911932;29;20035;-75
2023/09/16 00:06:24;;;;;;;11.85;3.15;;;14.30;99.90;;;13.11;92.05;101732.97;4909918;29;20138;-77
2023/09/16 00:08:50;;;;;;;10.05;3.70;;;14.20;99.90;;;13.10;92.66;101731.22;4928089;29;21116;-75
2023/09/16 00:11:25;;;;;;;5.40;3.15;;;14.20;99.90;;;13.04;91.97;101732.31;4925859;29;20092;-75
2023/09/16 00:13:51;;;;;;;4.32;2.70;;;14.10;99.90;;;13.02;92.48;101730.66;4925930;29;20127;-76
2023/09/16 00:16:17;;;;;;;11.15;3.40;;;14.10;99.90;;;12.98;92.51;101732.59;4927911;29;20028;-76
2023/09/16 00:18:50;;;;;;;12.73;3.72;;;14.10;99.90;;;12.96;92.44;101730.91;4925012;29;20519;-77
2023/09/16 00:21:17;;;;;;;9.52;3.10;;;14.10;99.90;;;12.98;92.10;101729.06;4923969;29;20050;-75
2023/09/16 00:23:43;;;;;;;9.10;3.15;;;14.00;99.90;;;12.93;92.18;101727.47;4911934;29;20039;-75
2023/09/16 00:26:09;;;;;;;11.88;3.20;;;14.00;99.90;;;12.95;91.82;101731.84;4910947;29;20036;-76
2023/09/16 00:28:40;;;;;;;10.57;2.97;;;14.00;99.90;;;12.93;91.88;101730.13;4925641;29;20037;-77
2023/09/16 00:31:07;;;;;;;10.93;3.25;;;14.00;99.90;;;12.90;91.55;101724.97;4909969;29;20577;-75
2023/09/16 00:33:33;;;;;;;9.27;3.65;;;14.00;99.90;;;12.90;91.38;101724.97;4926942;29;20054;-77
2023/09/16 00:35:59;;;;;;;10.90;3.20;;;14.00;99.90;;;12.92;91.42;101717.84;4913650;29;20415;-77
2023/09/16 00:38:24;;;;;;;9.20;3.17;;;14.00;99.90;;;12.91;90.75;101724.06;4915413;29;20048;-76
2023/09/16 00:40:51;;;;;;;7.28;2.95;;;14.00;99.90;;;12.95;90.30;101723.94;4929052;29;20068;-75
2023/09/16 00:43:19;;;;;;;7.90;2.63;;;14.00;99.90;;;12.89;90.45;101720.63;4930348;29;20067;-77
2023/09/16 00:45:45;;;;;;;7.88;3.03;;;14.00;99.90;;;12.90;90.75;101714.41;4930011;29;20036;-75
2023/09/16 00:48:14;;;;;;;7.53;3.30;;;14.00;99.90;;;12.91;90.08;101718.78;4929267;29;20058;-76
2023/09/16 00:50:41;;;;;;;7.53;3.25;;;14.00;99.90;;;12.89;89.97;101715.34;4913902;29;20446;-75
2023/09/16 00:53:07;;;;;;;11.82;3.25;;;14.00;99.90;;;12.86;90.28;101719.88;4914695;29;20024;-75
2023/09/16 00:55:33;;;;;;;8.48;2.63;;;14.00;99.90;;;12.88;89.76;101718.88;4911076;29;20040;-75
2023/09/16 00:57:59;;;;;;;6.75;2.65;;;13.90;99.90;;;12.86;89.27;101709.28;4930166;29;20047;-75
2023/09/16 01:00:26;;;;;;;5.80;3.00;;;13.90;99.90;;;12.89;89.46;101709.16;4930248;29;20032;-76
2023/09/16 01:02:56;;;;;;;10.20;3.33;;;13.90;99.90;;;12.82;89.29;101713.84;4930001;29;20055;-75
2023/09/16 01:05:21;;;;;;;7.35;2.97;;;13.90;99.90;;;12.80;89.10;101702.47;4926594;29;20481;-75
2023/09/16 01:07:47;;;;;;;5.38;2.63;;;13.80;99.90;;;12.74;88.96;101710.63;4929755;29;20036;-75
2023/09/16 01:10:14;;;;;;;10.20;3.13;;;13.80;99.90;;;12.76;88.44;101714.06;4915021;29;20028;-75
2023/09/16 01:12:42;;;;;;;5.95;2.55;;;13.80;99.90;;;12.75;88.36;101712.38;4930414;29;20036;-75
2023/09/16 01:15:10;;;;;;;9.88;2.80;;;13.80;99.90;;;12.74;87.89;101710.63;4927918;29;20131;-75
2023/09/16 01:18:22;;;;;;;12.05;3.03;;;13.80;99.90;;;12.75;87.51;101714.16;4930214;29;20056;-75
2023/09/16 01:20:49;;;;;;;11.77;3.38;;;13.80;99.90;;;12.70;87.67;101711.72;4912769;29;20772;-75
2023/09/16 01:23:21;;;;;;;4.70;2.70;;;13.80;99.90;;;12.69;87.77;101707.31;4913726;29;20024;-75
2023/09/16 01:25:46;;;;;;;9.15;3.08;;;13.80;99.90;;;12.68;87.78;101708.25;4928767;29;20040;-75
2023/09/16 01:28:13;;;;;;;6.28;2.58;;;13.70;99.90;;;12.64;87.22;101704.03;4913494;29;20087;-75
2023/09/16 01:30:48;;;;;;;9.93;2.50;;;13.70;99.90;;;12.62;86.54;101705.84;4912999;29;20028;-75
2023/09/16 01:33:32;;;;;;;7.53;3.03;;;13.70;99.90;;;12.61;86.83;101696.19;4914563;29;20042;-76
2023/09/16 01:36:08;;;;;;;12.05;3.03;;;13.70;99.90;;;12.58;87.18;101696.34;4927189;29;20477;-75
2023/09/16 01:38:36;;;;;;;7.80;2.92;;;13.60;99.90;;;12.52;86.93;101697.41;4913801;29;20039;-75
2023/09/16 01:41:04;;;;;;;6.10;2.30;;;13.70;99.90;;;12.52;86.69;101694.78;4928537;29;20118;-75
2023/09/16 01:43:31;;;;;;;6.85;2.60;;;13.60;99.90;;;12.54;86.15;101692.09;4925919;29;20051;-76
2023/09/16 01:45:57;;;;;;;6.57;2.35;;;13.60;99.90;;;12.52;86.40;101689.50;4912523;29;20179;-74
2023/09/16 01:48:25;;;;;;;6.07;2.28;;;13.60;99.90;;;12.51;86.25;101687.78;4929904;29;20032;-75
2023/09/16 01:50:51;;;;;;;5.43;2.38;;;13.60;99.90;;;12.49;85.97;101695.75;4927915;29;20490;-75
2023/09/16 01:53:17;;;;;;;6.28;2.58;;;13.60;99.90;;;12.55;85.28;101692.03;4912368;29;20116;-75
2023/09/16 01:55:42;;;;;;;7.65;2.63;;;13.60;99.90;;;12.50;85.11;101691.34;4928083;29;20050;-77
2023/09/16 01:58:08;;;;;;;10.40;2.72;;;13.60;99.90;;;12.48;85.00;101686.13;4913557;29;20040;-76
2023/09/16 02:00:35;;;;;;;8.95;2.40;;;13.60;99.90;;;12.55;85.26;101683.22;4929969;29;20036;-75
2023/09/16 02:03:00;;;;;;;11.85;2.78;;;13.60;99.90;;;12.51;84.44;101682.50;4927919;29;20096;-75
2023/09/16 02:05:29;;;;;;;5.20;2.38;;;13.60;99.90;;;12.47;84.91;101673.84;4911392;29;20040;-75
2023/09/16 02:07:57;;;;;;;11.60;2.45;;;13.60;99.90;;;12.51;84.71;101670.16;4912953;29;20055;-75
2023/09/16 02:10:22;;;;;;;7.88;2.45;;;13.60;99.90;;;12.46;84.30;101669.47;4927666;29;20036;-75
2023/09/16 02:12:48;;;;;;;7.15;2.40;;;13.60;99.90;;;12.48;84.14;101670.28;4916304;29;20032;-75
2023/09/16 02:15:14;;;;;;;9.38;2.40;;;13.60;99.90;;;12.52;84.08;101668.38;4927381;29;20392;-75
2023/09/16 02:17:40;;;;;;;8.85;2.47;;;13.60;99.90;;;12.51;83.73;101670.16;4913079;29;20028;-75
2023/09/16 02:20:12;;;;;;;5.68;2.35;;;13.60;99.90;;;12.50;83.63;101663.16;4913421;29;20051;-75
2023/09/16 02:22:40;;;;;;;5.60;2.22;;;13.60;99.90;;;12.52;83.28;101663.06;4911819;29;20024;-76
2023/09/16 02:25:15;;;;;;;4.13;2.00;;;13.60;99.90;;;12.55;83.73;101662.97;4911937;29;20406;-75
2023/09/16 02:27:41;;;;;;;5.32;2.30;;;13.60;99.90;;;12.50;83.21;101664.91;4912167;29;20025;-76
2023/09/16 02:30:07;;;;;;;5.07;2.50;;;13.60;99.90;;;12.51;83.28;101667.50;4926700;29;20032;-75
2023/09/16 02:32:33;;;;;;;6.25;2.40;;;13.60;99.90;;;12.54;83.78;101671.81;4926154;29;20034;-75
2023/09/16 02:35:01;;;;;;;6.78;2.55;;;13.60;99.90;;;12.52;83.41;101668.38;4929060;29;20503;-75
2023/09/16 02:37:26;;;;;;;6.53;2.30;;;13.60;99.90;;;12.52;83.00;101663.94;4912364;29;20434;-75
2023/09/16 02:39:52;;;;;;;4.05;2.10;;;13.70;99.90;;;12.53;82.85;101662.16;4912054;29;20048;-77
2023/09/16 02:42:18;;;;;;;7.40;2.50;;;13.60;99.90;;;12.54;82.67;101660.38;4914355;29;20076;-77
2023/09/16 02:44:43;;;;;;;9.25;2.47;;;13.60;99.90;;;12.51;82.95;101654.31;4926604;29;20075;-77
2023/09/16 02:47:09;;;;;;;8.60;2.53;;;13.60;99.90;;;12.53;83.04;101656.88;4928058;29;20048;-78
2023/09/16 02:49:35;;;;;;;11.68;2.38;;;13.60;99.90;;;12.51;82.62;101656.94;4913600;29;20032;-77
2023/09/16 02:52:01;;;;;;;8.98;2.40;;;13.60;99.90;;;12.54;82.93;101655.94;4912720;29;20735;-78
2023/09/16 02:54:27;;;;;;;7.35;2.17;;;13.60;99.90;;;12.54;82.46;101650.66;4927454;29;20028;-75
2023/09/16 02:56:53;;;;;;;6.22;2.58;;;13.60;99.90;;;12.45;82.53;101649.25;4911357;29;20043;-75
2023/09/16 02:59:21;;;;;;;5.63;2.28;;;13.60;99.90;;;12.45;82.48;101646.63;4912644;29;20106;-75
2023/09/16 03:01:46;;;;;;;4.53;2.25;;;13.60;99.90;;;12.48;82.55;101648.28;4912663;29;20131;-75
2023/09/16 03:04:12;;;;;;;10.50;2.47;;;13.60;99.90;;;12.46;82.64;101642.19;4926987;29;20036;-75
2023/09/16 03:06:38;;;;;;;5.25;2.10;;;13.60;99.90;;;12.47;83.17;101644.78;4910846;29;20490;-75
2023/09/16 03:09:04;;;;;;;8.13;2.35;;;13.60;99.90;;;12.47;82.80;101644.78;4912207;29;20043;-75
2023/09/16 03:11:29;;;;;;;8.32;2.78;;;13.60;99.90;;;12.48;82.64;101643.88;4912400;29;20418;-75
2023/09/16 03:13:57;;;;;;;17.75;2.25;;;13.60;99.90;;;12.48;82.54;101642.97;4909812;29;20044;-75
2023/09/16 03:16:24;;;;;;;7.35;2.40;;;13.60;99.90;;;12.48;82.56;101635.94;4919732;29;20032;-75
2023/09/16 03:18:52;;;;;;;5.07;2.35;;;13.00;99.90;;;12.46;82.82;101639.53;4928362;29;20084;-75
2023/09/16 03:21:19;;;;;;;4.90;2.20;;;13.60;99.90;;;12.49;82.39;101637.66;4926891;29;20141;-76
2023/09/16 03:23:45;;;;;;;6.72;2.30;;;13.60;99.90;;;12.46;82.41;101632.50;4927850;29;20028;-75
2023/09/16 03:26:15;;;;;;;7.88;2.90;;;13.60;99.90;;;12.43;82.49;101629.13;4924070;29;20032;-75
2023/09/16 03:28:47;;;;;;;6.93;2.50;;;13.60;99.90;;;12.43;82.19;101627.31;4924404;29;20060;-76
2023/09/16 03:31:16;;;;;;;5.65;2.60;;;13.60;99.90;;;12.42;82.74;101622.09;4924534;29;20118;-75
2023/09/16 03:33:42;;;;;;;6.35;2.40;;;13.50;99.90;;;12.41;82.52;101623.88;4909925;29;20035;-75
2023/09/16 03:36:08;;;;;;;6.25;2.55;;;13.50;99.90;;;12.43;82.86;101622.03;4926995;29;20032;-75
2023/09/16 03:38:35;;;;;;;6.22;2.60;;;13.50;99.90;;;12.45;82.29;101619.34;4927879;29;20099;-75
2023/09/16 03:41:01;;;;;;;7.35;2.70;;;13.50;99.90;;;12.38;82.67;101617.88;4926621;29;20117;-76
2023/09/16 03:43:27;;;;;;;8.77;2.90;;;13.50;99.90;;;12.41;83.17;101612.47;4924814;29;20036;-75
2023/09/16 03:45:54;;;;;;;5.63;2.75;;;13.50;99.90;;;12.38;83.11;101605.53;4927199;29;20028;-75
2023/09/16 03:48:19;;;;;;;7.10;2.70;;;13.50;99.90;;;12.39;83.12;101607.25;4926642;29;20080;-75
2023/09/16 03:50:48;;;;;;;7.57;2.50;;;13.50;99.90;;;12.40;82.97;101606.34;4925188;29;20062;-75
2023/09/16 03:53:14;;;;;;;7.85;2.72;;;13.50;99.90;;;12.34;83.37;101608.34;4908049;29;20044;-75
2023/09/16 03:55:40;;;;;;;5.35;2.63;;;13.50;99.90;;;12.31;83.81;101601.44;4911700;29;20075;-76
2023/09/16 03:58:06;;;;;;;11.63;2.53;;;13.50;99.90;;;12.31;84.20;101598.78;4911838;29;20111;-75
2023/09/16 04:00:31;;;;;;;7.43;2.80;;;13.50;99.90;;;12.33;84.36;101594.28;4925498;29;20027;-75
2023/09/16 04:02:57;;;;;;;4.93;2.25;;;13.50;99.90;;;12.29;84.83;101598.84;4923662;29;20514;-75
2023/09/16 04:05:25;;;;;;;9.38;3.38;;;13.50;99.90;;;12.30;84.21;101599.69;4912116;29;20034;-76
2023/09/16 04:07:54;;;;;;;8.68;2.33;;;13.50;99.90;;;12.31;84.56;101598.78;4896849;29;20032;-76
2023/09/16 04:10:19;;;;;;;4.70;2.75;;;13.40;99.90;;;12.29;84.63;101598.84;4926977;29;20087;-75
2023/09/16 04:12:45;;;;;;;7.57;3.08;;;13.40;99.90;;;12.28;84.99;101596.25;4909513;29;20498;-75
2023/09/16 04:15:11;;;;;;;9.00;2.95;;;13.40;99.90;;;12.25;84.81;101589.31;4912775;29;20035;-76
2023/09/16 04:17:36;;;;;;;9.85;2.92;;;13.40;99.90;;;12.29;84.98;101587.41;4912869;29;20051;-75
2023/09/16 04:20:06;;;;;;;8.25;2.90;;;13.40;99.90;;;12.28;84.72;101585.69;4924752;29;20084;-75
2023/09/16 04:22:32;;;;;;;11.20;3.20;;;13.40;99.90;;;12.25;84.98;101585.81;4910830;29;20119;-78
2023/09/16 04:24:58;;;;;;;7.78;3.17;;;13.40;99.90;;;12.19;85.07;101586.91;4912802;29;20028;-76
2023/09/16 04:27:23;;;;;;;5.47;2.60;;;13.40;99.90;;;12.21;85.57;101590.34;4910632;29;20048;-75
2023/09/16 04:29:49;;;;;;;5.88;2.78;;;13.40;99.90;;;12.22;85.83;101581.50;4924828;29;20032;-75
2023/09/16 04:32:15;;;;;;;4.82;2.50;;;13.40;99.90;;;12.26;85.36;101582.25;4925711;29;20034;-75
2023/09/16 04:34:41;;;;;;;5.82;2.90;;;13.40;99.90;;;12.23;85.73;101592.94;4910791;29;20062;-75
2023/09/16 04:37:09;;;;;;;9.32;3.28;;;13.40;99.90;;;12.24;85.57;101584.09;4927018;29;20024;-75
2023/09/16 04:39:35;;;;;;;8.52;2.70;;;13.40;99.90;;;12.25;85.86;101591.09;4925764;29;20081;-75
2023/09/16 04:42:02;;;;;;;6.97;3.10;;;13.40;99.90;;;12.25;85.47;101583.19;4924848;29;20040;-76
2023/09/16 04:44:28;;;;;;;7.32;2.78;;;13.40;99.90;;;12.28;85.41;101585.69;4910571;29;20517;-77
2023/09/16 04:46:54;;;;;;;8.43;2.88;;;13.40;99.90;;;12.31;85.04;101580.31;4927046;29;20406;-76
2023/09/16 04:49:21;;;;;;;4.70;2.65;;;13.40;99.90;;;12.30;85.37;101571.50;4923699;29;20028;-76
2023/09/16 04:51:48;;;;;;;6.60;2.80;;;13.40;99.90;;;12.28;85.61;101575.13;4926221;29;20108;-75
2023/09/16 04:54:16;;;;;;;8.10;3.10;;;13.40;99.90;;;12.31;85.55;101575.88;4926940;29;20051;-75
2023/09/16 04:56:42;;;;;;;8.50;2.80;;;13.40;99.90;;;12.33;85.68;101583.72;4911537;29;20071;-76
2023/09/16 04:59:08;;;;;;;8.70;2.90;;;13.40;99.90;;;12.38;85.17;101575.63;4911199;29;20040;-79
2023/09/16 05:01:33;;;;;;;8.63;3.38;;;13.50;99.90;;;12.47;84.86;101575.25;4923946;29;20051;-76
2023/09/16 05:03:59;;;;;;;7.47;3.10;;;13.50;99.90;;;12.50;84.99;101581.28;4912223;29;20032;-75
2023/09/16 05:06:25;;;;;;;6.20;3.13;;;13.50;99.90;;;12.55;84.75;101577.56;4926624;29;20055;-75
2023/09/16 05:08:54;;;;;;;4.18;2.78;;;13.60;99.90;;;12.61;84.74;101578.19;4910112;29;20035;-75
2023/09/16 05:11:19;;;;;;;11.88;3.05;;;13.60;99.90;;;12.66;84.26;101575.34;4922339;29;20032;-75
2023/09/16 05:13:45;;;;;;;7.97;3.15;;;13.70;99.90;;;12.77;84.34;101582.81;4925228;29;20084;-75
2023/09/16 05:16:11;;;;;;;6.75;2.78;;;13.70;99.90;;;12.82;83.33;101568.47;4909836;29;20070;-76
2023/09/16 05:18:37;;;;;;;7.20;3.10;;;13.80;99.90;;;12.88;83.13;101568.22;4912720;29;20634;-75
2023/09/16 05:21:03;;;;;;;6.78;3.10;;;13.80;99.90;;;12.99;82.81;101582.75;4928031;29;20036;-76
2023/09/16 05:23:30;;;;;;;6.53;3.00;;;13.90;99.90;;;13.07;82.67;101576.22;4930359;29;20498;-76
2023/09/16 05:25:56;;;;;;;9.48;3.22;;;14.00;99.90;;;13.17;82.42;101576.66;4913750;29;20072;-76
2023/09/16 05:28:22;;;;;;;11.10;3.30;;;14.10;99.90;;;13.21;81.90;101575.59;4930236;29;20059;-76
2023/09/16 05:30:48;;;;;;;7.07;3.00;;;14.10;99.90;;;13.19;82.32;101580.09;4927911;29;20572;-75
2023/09/16 05:33:14;;;;;;;11.82;3.17;;;14.20;99.90;;;13.18;81.67;101580.19;4914458;29;20036;-75
2023/09/16 05:35:41;;;;;;;10.75;3.20;;;14.20;99.90;;;13.29;82.12;101583.25;4927815;29;20066;-77
2023/09/16 05:38:08;;;;;;;9.27;3.13;;;14.20;99.90;;;13.39;81.75;101587.22;4910854;29;20036;-75
2023/09/16 05:40:38;;;;;;;8.68;3.08;;;14.30;99.90;;;13.75;80.67;101597.88;4914794;29;20064;-76
2023/09/16 05:43:04;;;;;;;6.13;2.80;;;14.40;99.90;;;13.88;79.42;101600.81;4913968;29;20039;-75
2023/09/16 05:45:31;;;;;;;12.32;3.00;;;14.60;99.90;;;13.92;79.49;101597.09;4928946;29;20044;-76
2023/09/16 05:48:01;;;;;;;6.10;2.78;;;14.60;99.90;;;13.85;79.70;101606.28;4913956;29;20032;-75
2023/09/16 05:50:27;;;;;;;10.13;2.95;;;14.70;99.90;;;14.02;79.46;101602.00;4911251;29;20039;-75
2023/09/16 05:52:53;;;;;;;5.82;2.90;;;14.80;99.90;;;14.33;77.79;101606.66;4930029;29;20024;-76
2023/09/16 05:55:21;;;;;;;6.38;2.75;;;14.90;99.90;;;14.46;77.40;101615.72;4928132;29;20084;-75
2023/09/16 05:57:47;;;;;;;8.57;3.10;;;15.00;99.90;;;14.50;76.84;101625.25;4928497;29;20062;-75
2023/09/16 06:00:13;;;;;;;12.75;3.13;;;15.10;99.90;;;14.71;76.31;101623.38;4908461;29;20443;-77
2023/09/16 06:02:40;;;;;;;7.30;3.22;;;15.30;99.90;;;14.88;75.29;101624.31;4929961;29;20034;-77
2023/09/16 06:05:07;;;;;;;9.65;3.03;;;15.40;99.90;;;14.74;75.53;101612.63;4914588;29;20035;-76
2023/09/16 06:07:41;;;;;;;6.10;3.00;;;15.40;99.90;;;14.74;75.77;101609.09;4927174;29;20032;-76
2023/09/16 06:10:08;;;;;;;10.40;3.50;;;15.50;99.90;;;15.12;74.69;101611.63;4925145;29;20029;-77
2023/09/16 06:12:34;;;;;;;10.23;3.13;;;15.60;99.90;;;15.16;74.49;101613.16;4928457;29;20032;-77
2023/09/16 06:15:09;;;;;;;9.88;3.03;;;15.80;99.90;;;15.96;72.68;101619.53;4929456;29;20036;-76
2023/09/16 06:17:34;;;;;;;7.68;3.17;;;16.00;99.90;;;15.92;71.86;101623.34;4926057;29;20111;-76
2023/09/16 06:20:00;;;;;;;7.05;3.50;;;16.20;99.90;;;16.96;70.24;101638.69;4927573;29;20518;-76
2023/09/16 06:22:26;;;;;;;10.65;2.90;;;16.60;99.90;;;17.42;67.51;101641.25;4913270;29;20095;-76
2023/09/16 06:24:52;;;;;;;8.80;3.17;;;16.70;99.90;;;16.37;69.63;101621.69;4928486;29;20410;-77
2023/09/16 06:27:18;;;;;;;6.72;3.45;;;16.80;99.90;;;17.22;68.49;101633.63;4927960;29;20410;-77
2023/09/16 06:29:46;;;;;;;12.25;3.50;;;17.20;99.90;;;19.16;63.71;101664.81;4927568;29;20042;-76
2023/09/16 06:32:12;;;;;;;6.20;3.08;;;17.60;99.90;;;18.70;63.49;101654.50;4925906;29;20035;-77
2023/09/16 06:34:38;;;;;;;8.98;3.10;;;17.90;99.90;;;19.05;62.47;101662.88;4928747;29;20115;-76
2023/09/16 06:37:05;;;;;;;11.70;3.05;;;18.30;99.90;;;20.02;60.56;101669.53;4927379;29;20084;-77
2023/09/16 06:39:32;;;;;;;8.65;3.25;;;19.10;99.90;;;22.71;55.41;101710.56;4913827;29;20036;-76
2023/09/16 06:42:00;;;;;;;10.80;3.45;;;20.20;99.90;;;24.56;50.97;101737.78;4927047;29;20039;-77
2023/09/16 06:44:25;;;;;;;11.13;3.47;;;21.50;99.90;;;26.45;47.37;101765.06;4928377;29;20032;-78
2023/09/16 06:46:51;;;;;;;8.75;3.42;;;22.50;99.90;;;26.87;45.88;101786.16;4926548;29;20128;-77
2023/09/16 06:49:20;;;;;;;7.30;3.17;;;23.60;99.90;;;28.01;43.81;101805.25;4914208;29;21346;-76
2023/09/16 06:51:45;;;;;;;6.40;3.28;;;24.30;99.90;;;28.12;43.23;101823.97;4927707;29;20040;-76
2023/09/16 06:54:11;;;;;;;6.28;2.75;;;24.70;98.90;;;26.70;44.14;101807.59;4914059;29;20042;-77
2023/09/16 06:56:39;;;;;;;4.50;2.80;;;24.90;99.00;;;27.57;43.22;101821.50;4926419;29;20036;-76
2023/09/16 06:59:05;;;;;;;7.13;3.17;;;25.10;98.90;;;27.80;42.79;101835.38;4926928;29;20119;-77
2023/09/16 07:01:32;;;;;;;5.32;2.90;;;25.60;97.60;;;27.53;43.07;101833.63;4912872;29;20046;-77
2023/09/16 07:03:58;;;;;;;6.90;3.00;;;25.70;97.20;;;27.26;43.11;101830.03;4928102;29;20122;-74
2023/09/16 07:06:24;;;;;;;10.30;3.60;;;25.70;96.80;;;26.87;43.29;101835.66;4927071;29;20032;-75
2023/09/16 07:08:49;;;;;;;9.68;3.22;;;25.80;97.10;;;27.39;43.48;101845.88;4926927;29;20036;-74
2023/09/16 07:11:17;;;;;;;7.60;3.20;;;26.10;96.70;;;27.84;42.74;101844.88;4913842;29;20036;-75
2023/09/16 07:13:44;;;;;;;8.77;3.35;;;26.60;96.40;;;28.32;41.82;101862.47;4923998;29;20038;-74
2023/09/16 07:16:12;;;;;;;7.55;3.63;;;27.10;95.40;;;28.35;41.53;101862.16;4927149;29;20491;-75
2023/09/16 07:18:38;;;;;;;9.07;3.33;;;27.10;94.30;;;27.62;42.46;101859.75;4910804;29;20044;-75
2023/09/16 07:21:04;;;;;;;6.75;3.40;;;27.10;95.10;;;27.70;42.50;101864.38;4928213;29;20553;-74
2023/09/16 07:23:30;;;;;;;7.65;3.38;;;27.30;94.30;;;27.72;42.13;101867.78;4913036;29;20102;-75
2023/09/16 07:26:00;;;;;;;9.30;3.20;;;27.60;94.10;;;27.99;41.97;101874.94;4910423;29;20087;-73
2023/09/16 07:28:27;;;;;;;5.45;3.10;;;28.00;93.90;;;28.22;41.62;101881.53;4926504;29;20039;-73
2023/09/16 07:30:53;;;;;;;8.85;3.05;;;27.80;93.30;;;27.25;42.87;101862.63;4927301;29;20024;-73
2023/09/16 07:33:19;;;;;;;10.45;3.47;;;27.80;93.60;;;27.67;42.72;101865.56;4910152;29;20040;-79
2023/09/16 07:35:44;;;;;;;7.57;3.38;;;28.10;93.60;;;27.87;42.44;101879.78;4927503;29;20028;-75
2023/09/16 07:38:15;;;;;;;9.70;3.30;;;27.90;93.40;;;27.16;43.06;101865.19;4912760;29;20107;-73
2023/09/16 07:40:41;;;;;;;7.22;3.53;;;27.70;93.70;;;26.32;44.45;101847.25;4925638;29;20034;-73
2023/09/16 07:43:11;;;;;;;8.93;3.60;;;27.30;93.20;;;26.15;44.79;101840.75;4911670;29;20083;-73
2023/09/16 07:45:38;;;;;;;9.30;3.53;;;27.10;94.50;;;26.40;44.69;101844.66;4910758;29;20079;-73
2023/09/16 07:48:09;;;;;;;9.27;3.70;;;27.10;94.50;;;26.24;45.30;101830.97;4926530;29;20036;-76
2023/09/16 07:50:34;;;;;;;10.93;3.50;;;27.30;94.80;;;27.24;43.85;101850.13;4926586;29;20040;-74
2023/09/16 07:53:00;;;;;;;16.15;3.83;;;27.90;93.70;;;27.77;42.59;101851.91;4913477;29;20036;-74
2023/09/16 07:55:26;;;;;;;6.93;3.15;;;28.20;92.80;;;27.43;43.04;101847.25;4926047;29;20032;-73
2023/09/16 07:57:51;;;;;;;9.43;3.50;;;28.50;93.80;;;28.07;42.70;101860.63;4910880;29;20083;-74
2023/09/16 08:00:17;;;;;;;8.45;3.35;;;28.80;92.70;;;27.86;42.82;101867.22;4924930;29;20028;-74
2023/09/16 08:02:45;;;;;;;7.18;3.35;;;28.90;91.80;;;27.53;42.98;101853.41;4927944;29;20060;-73
2023/09/16 08:05:11;;;;;;;6.63;3.40;;;29.20;92.10;;;28.22;42.13;101869.84;4926268;29;20062;-74
2023/09/16 08:07:36;;;;;;;6.82;3.33;;;29.40;92.20;;;28.55;42.25;101870.06;4924021;29;20040;-73
2023/09/16 08:10:03;;;;;;;12.38;3.55;;;29.40;91.60;;;27.96;42.26;101867.16;4925450;29;20398;-73
2023/09/16 08:12:28;;;;;;;5.85;3.40;;;29.30;91.40;;;27.85;42.21;101862.84;4911183;29;20028;-73
2023/09/16 08:14:54;;;;;;;6.47;3.17;;;28.60;91.20;;;26.22;44.58;101845.59;4912638;29;20546;-74
2023/09/16 08:17:20;;;;;;;11.63;3.50;;;28.30;92.80;;;26.79;44.88;101840.97;4925911;29;20044;-74
2023/09/16 08:19:46;;;;;;;10.75;3.63;;;28.50;92.60;;;27.29;43.65;101834.25;4926760;29;20036;-74
2023/09/16 08:22:11;;;;;;;7.85;3.28;;;28.70;92.00;;;27.25;43.80;101840.97;4927368;29;20057;-74
2023/09/16 08:24:40;;;;;;;7.28;3.83;;;28.20;92.10;;;26.32;45.64;101827.50;4928054;29;20076;-74
2023/09/16 08:27:05;;;;;;;6.05;3.35;;;28.30;93.20;;;26.89;44.83;101822.84;4911070;29;20502;-74
2023/09/16 08:29:31;;;;;;;6.97;3.35;;;28.10;92.40;;;26.39;45.29;101823.22;4925866;29;20036;-73
2023/09/16 08:31:57;;;;;;;8.20;4.28;;;27.90;93.10;;;26.28;45.99;101813.44;4927601;29;20035;-74
2023/09/16 08:34:22;;;;;;;6.63;3.70;;;28.00;93.60;;;26.58;45.48;101806.09;4911560;29;20043;-74
2023/09/16 08:36:48;;;;;;;6.68;3.50;;;28.00;93.00;;;26.47;44.93;101798.19;4910491;29;20040;-76
2023/09/16 08:39:14;;;;;;;9.50;4.00;;;27.70;94.20;;;26.29;46.47;101793.56;4925350;29;20099;-75
2023/09/16 08:42:36;;;;;;;7.20;3.65;;;27.40;93.20;;;25.54;46.32;101771.03;4907685;29;20032;-75
2023/09/16 08:45:06;;;;;;;5.35;3.55;;;26.70;94.50;;;24.96;48.24;101758.38;4920924;29;20048;-75
2023/09/16 08:47:43;;;;;;;7.47;3.75;;;26.50;95.10;;;25.24;47.69;101763.97;4909717;29;20029;-75
2023/09/16 08:50:10;;;;;;;5.53;3.22;;;26.40;94.40;;;25.07;47.64;101752.84;4925266;29;20032;-76
2023/09/16 08:52:48;;;;;;;7.10;3.53;;;26.30;94.80;;;25.06;47.75;101748.47;4923480;29;20043;-75
2023/09/16 08:55:15;;;;;;;8.98;3.55;;;26.00;95.50;;;24.87;48.93;101740.38;4929604;29;20060;-75
2023/09/16 08:58:08;;;;;;;7.03;3.90;;;25.80;96.20;;;24.69;49.00;101738.38;4929846;29;20067;-75
2023/09/16 09:00:36;;;;;;;9.07;3.67;;;25.60;96.40;;;24.50;49.49;101739.16;4916047;29;20447;-75
2023/09/16 09:03:04;;;;;;;6.13;3.45;;;25.40;97.20;;;24.63;50.62;101728.16;4928916;29;20048;-75
2023/09/16 09:05:37;;;;;;;8.20;3.92;;;25.20;97.10;;;24.12;50.91;101718.34;4929721;29;20559;-76
2023/09/16 09:08:13;;;;;;;7.75;4.03;;;24.90;97.50;;;23.89;51.19;101712.31;4926370;29;20042;-75
2023/09/16 09:10:42;;;;;;;9.82;3.72;;;24.60;97.80;;;23.54;51.70;101705.41;4928319;29;20028;-76
2023/09/16 09:13:15;;;;;;;14.73;3.90;;;24.30;98.80;;;23.37;53.43;101697.97;4929005;29;20124;-76
2023/09/16 09:15:42;;;;;;;9.32;4.00;;;24.00;99.50;;;23.08;54.08;101695.91;4915304;29;20473;-75
2023/09/16 09:18:09;;;;;;;6.60;3.80;;;23.80;99.80;;;22.76;55.14;101690.53;4926380;29;20036;-76
2023/09/16 09:20:38;;;;;;;6.75;3.97;;;23.50;99.90;;;22.26;56.33;101681.13;4912889;29;20067;-76
2023/09/16 09:23:07;;;;;;;7.78;3.95;;;23.40;99.90;;;22.56;57.00;101678.75;4913946;29;20098;-76
2023/09/16 09:25:36;;;;;;;14.23;3.40;;;23.40;99.90;;;22.46;55.99;101665.22;4912037;29;20032;-75
2023/09/16 09:28:05;;;;;;;9.40;3.30;;;23.20;99.90;;;22.31;56.38;101664.66;4928990;29;20021;-76
2023/09/16 09:30:41;;;;;;;11.68;4.13;;;23.20;99.90;;;22.26;57.15;101657.00;4930393;29;20036;-77
2023/09/16 09:33:13;;;;;;;;;;;23.20;99.90;;;22.05;57.02;101645.28;4912860;29;20089;-77
2023/09/16 09:35:39;;;;;;;9.32;3.80;;;23.10;99.90;;;22.11;57.52;101631.38;4910927;29;19957;-76
2023/09/16 09:38:10;;;;;;;5.90;3.58;;;23.10;99.90;;;22.21;57.75;101635.03;4912067;29;20036;-76
2023/09/16 09:40:38;;;;;;;9.98;3.63;;;23.20;99.90;;;22.45;57.38;101632.19;4927658;29;20454;-75
2023/09/16 09:43:04;;;;;;;10.15;3.60;;;23.20;99.90;;;22.44;56.90;101633.19;4927960;29;20109;-76
2023/09/16 09:45:37;;;;;;;12.60;3.85;;;23.30;99.90;;;22.51;56.50;101629.00;4929393;29;20044;-77
2023/09/16 09:48:03;;;;;;;7.40;3.60;;;23.30;99.90;;;22.54;57.46;101622.53;4929765;29;20044;-78
2023/09/16 09:50:30;;;;;;;12.15;3.50;;;23.30;99.90;;;22.48;57.22;101612.28;4911652;29;20517;-76
2023/09/16 09:53:03;;;;;;;7.18;3.55;;;23.30;99.90;;;22.50;57.18;101610.34;4909790;29;20060;-77
2023/09/16 09:55:32;;;;;;;8.70;3.28;;;23.40;99.90;;;22.70;57.02;101611.38;4927173;29;20510;-77
2023/09/16 09:58:01;;;;;;;11.75;3.67;;;23.40;99.90;;;22.56;57.16;101606.31;4913812;29;20067;-77
2023/09/16 10:00:30;;;;;;;8.55;3.42;;;23.40;99.90;;;22.46;56.86;101598.16;4930670;29;20490;-77
2023/09/16 10:02:58;;;;;;;7.60;3.25;;;23.40;99.90;;;22.54;56.79;101598.38;4913194;29;20084;-77
2023/09/16 10:05:29;;;;;;;7.05;3.20;;;23.40;99.90;;;22.47;56.49;101602.56;4926997;29;20036;-77
2023/09/16 10:07:55;;;;;;;10.68;3.28;;;23.40;99.90;;;22.63;56.87;101594.91;4930636;29;20038;-77
2023/09/16 10:10:25;;;;;;;5.75;3.40;;;23.50;99.90;;;22.67;56.43;101595.50;4933249;29;20115;-78
2023/09/16 10:12:58;;;;;;;9.52;3.20;;;23.50;99.90;;;22.73;56.25;101589.63;4915229;29;20055;-77